createdAt,value
2023-01-21T00:01:14.383Z,4.64
2023-01-21T00:03:42.036Z,4.87
2023-01-21T00:06:09.558Z,4.76
2023-01-21T00:08:36.968Z,4.93
2023-01-21T00:11:08.971Z,4.65
2023-01-21T00:13:36.558Z,4.60
2023-01-21T00:16:05.118Z,5.20
2023-01-21T00:18:33.499Z,5.18
2023-01-21T00:21:01.594Z,4.85
2023-01-21T00:23:29.134Z,5.16
2023-01-21T00:26:01.045Z,4.71
2023-01-21T00:28:30.118Z,5.62
2023-01-21T00:30:59.332Z,4.80
2023-01-21T00:33:27.643Z,4.77
2023-01-21T00:36:09.587Z,4.84
2023-01-21T00:38:38.139Z,4.67
2023-01-21T00:41:07.732Z,4.51
2023-01-21T00:43:35.607Z,4.58
2023-01-21T00:46:03.433Z,4.57
2023-01-21T00:48:31.540Z,4.51
2023-01-21T00:51:00.855Z,4.40
2023-01-21T00:53:30.222Z,4.48
2023-01-21T00:56:05.512Z,4.57
2023-01-21T00:58:33.269Z,4.66
2023-01-21T01:01:01.819Z,4.94
2023-01-21T01:03:29.533Z,4.82
2023-01-21T01:06:02.774Z,4.75
2023-01-21T01:08:30.102Z,4.84
2023-01-21T01:10:57.421Z,4.58
2023-01-21T01:13:24.757Z,4.57
2023-01-21T01:15:55.942Z,4.89
2023-01-21T01:18:24.529Z,4.95
2023-01-21T01:20:52.389Z,4.83
2023-01-21T01:23:20.158Z,4.73
2023-01-21T01:26:02.803Z,4.80
2023-01-21T01:28:30.856Z,4.96
2023-01-21T01:30:58.453Z,4.76
2023-01-21T01:33:26.375Z,4.89
2023-01-21T01:35:53.915Z,4.93
2023-01-21T01:38:23.330Z,4.80
2023-01-21T01:40:52.483Z,4.71
2023-01-21T01:43:28.171Z,4.67
2023-01-21T01:45:55.607Z,4.72
2023-01-21T01:48:27.472Z,4.75
2023-01-21T01:50:57.909Z,4.87
2023-01-21T01:53:25.606Z,4.83
2023-01-21T01:55:53.369Z,4.74
2023-01-21T01:58:21.439Z,4.73
2023-01-21T02:00:48.889Z,4.60
2023-01-21T02:03:35.716Z,4.77
2023-01-21T02:06:04.347Z,4.67
2023-01-21T02:08:32.896Z,4.65
2023-01-21T02:11:01.066Z,4.82
2023-01-21T02:13:29.855Z,4.79
2023-01-21T02:16:06.272Z,4.54
2023-01-21T02:18:54.926Z,4.63
2023-01-21T02:21:31.285Z,4.75
2023-01-21T02:24:10.905Z,4.80
2023-01-21T02:27:10.292Z,4.51
2023-01-21T02:30:12.952Z,4.59
2023-01-21T02:33:17.440Z,4.48
2023-01-21T02:36:20.178Z,4.28
2023-01-21T02:39:25.642Z,4.43
2023-01-21T02:42:11.630Z,4.20
2023-01-21T02:45:00.669Z,4.29
2023-01-21T02:47:55.357Z,4.08
2023-01-21T02:50:30.462Z,4.09
2023-01-21T02:52:59.532Z,3.57
2023-01-21T02:55:37.320Z,3.35
2023-01-21T02:58:08.343Z,3.62
2023-01-21T03:01:12.449Z,3.70
2023-01-21T03:03:52.932Z,3.34
2023-01-21T03:06:35.953Z,3.63
2023-01-21T03:09:10.504Z,3.54
2023-01-21T03:11:37.824Z,3.07
2023-01-21T03:14:38.758Z,2.99
2023-01-21T03:17:13.995Z,3.12
2023-01-21T03:19:54.105Z,2.80
2023-01-21T03:22:24.744Z,2.77
2023-01-21T03:24:53.214Z,2.83
2023-01-21T03:27:23.612Z,2.85
2023-01-21T03:29:55.084Z,2.87
2023-01-21T03:32:23.028Z,3.05
2023-01-21T03:34:51.945Z,2.90
2023-01-21T03:37:48.197Z,3.08
2023-01-21T03:40:23.942Z,2.92
2023-01-21T03:42:52.710Z,2.84
2023-01-21T03:45:46.927Z,3.00
2023-01-21T03:48:20.676Z,3.05
2023-01-21T03:50:54.793Z,2.89
2023-01-21T03:53:22.667Z,2.72
2023-01-21T03:55:51.443Z,2.89
2023-01-21T03:58:18.865Z,2.71
2023-01-21T04:00:46.809Z,2.68
2023-01-21T04:03:14.207Z,2.58
2023-01-21T04:05:41.624Z,2.69
2023-01-21T04:08:09.846Z,2.73
2023-01-21T04:10:37.112Z,2.96
2023-01-21T04:13:04.419Z,2.96
2023-01-21T04:15:31.709Z,2.86
2023-01-21T04:17:59.032Z,2.61
2023-01-21T04:20:26.479Z,2.58
2023-01-21T04:22:53.743Z,2.66
2023-01-21T04:25:21.496Z,2.76
2023-01-21T04:27:48.809Z,2.66
2023-01-21T04:30:16.719Z,2.32
2023-01-21T04:32:44.120Z,2.55
2023-01-21T04:35:11.402Z,2.41
2023-01-21T04:37:38.723Z,2.53
2023-01-21T04:40:06.682Z,2.36
2023-01-21T04:42:33.997Z,2.11
2023-01-21T04:45:01.721Z,2.08
2023-01-21T04:47:29.195Z,2.01
2023-01-21T04:49:56.452Z,2.05
2023-01-21T04:52:23.801Z,1.91
2023-01-21T04:54:51.331Z,2.03
2023-01-21T04:57:18.906Z,1.88
2023-01-21T04:59:46.365Z,2.13
2023-01-21T05:02:14.035Z,2.08
2023-01-21T05:04:41.405Z,1.87
2023-01-21T05:07:11.990Z,2.04
2023-01-21T05:09:39.252Z,2.03
2023-01-21T05:12:07.101Z,2.06
2023-01-21T05:14:34.572Z,1.90
2023-01-21T05:17:01.981Z,2.00
2023-01-21T05:19:29.321Z,1.85
2023-01-21T05:21:56.564Z,1.79
2023-01-21T05:24:23.961Z,2.01
2023-01-21T05:26:51.522Z,1.94
2023-01-21T05:29:18.857Z,1.84
2023-01-21T05:31:46.368Z,1.89
2023-01-21T05:34:13.701Z,2.01
2023-01-21T05:36:40.998Z,1.82
2023-01-21T05:39:08.385Z,1.98
2023-01-21T05:41:35.818Z,1.73
2023-01-21T05:44:03.288Z,1.67
2023-01-21T05:46:30.604Z,1.86
2023-01-21T05:48:57.959Z,1.66
2023-01-21T05:51:25.316Z,1.54
2023-01-21T05:53:52.631Z,1.44
2023-01-21T05:56:20.046Z,1.64
2023-01-21T05:58:47.489Z,1.55
2023-01-21T06:01:14.845Z,1.83
2023-01-21T06:03:42.201Z,1.68
2023-01-21T06:06:09.527Z,1.68
2023-01-21T06:08:36.794Z,1.75
2023-01-21T06:11:04.390Z,1.55
2023-01-21T06:13:31.854Z,1.61
2023-01-21T06:15:59.170Z,1.31
2023-01-21T06:18:26.639Z,1.38
2023-01-21T06:20:54.023Z,1.30
2023-01-21T06:23:21.456Z,1.54
2023-01-21T06:25:48.776Z,1.40
2023-01-21T06:28:16.289Z,1.46
2023-01-21T06:30:43.919Z,1.33
2023-01-21T06:33:11.489Z,1.49
2023-01-21T06:35:38.937Z,1.27
2023-01-21T06:38:06.317Z,1.40
2023-01-21T06:40:34.339Z,1.25
2023-01-21T06:43:02.027Z,1.15
2023-01-21T06:45:29.446Z,1.28
2023-01-21T06:47:56.802Z,1.31
2023-01-21T06:50:24.254Z,1.38
2023-01-21T06:52:51.538Z,1.52
2023-01-21T06:55:18.904Z,1.61
2023-01-21T06:57:46.166Z,1.63
2023-01-21T07:00:14.169Z,1.72
2023-01-21T07:02:41.521Z,1.45
2023-01-21T07:05:09.151Z,1.43
2023-01-21T07:07:36.456Z,1.25
2023-01-21T07:10:04.015Z,1.59
2023-01-21T07:12:31.818Z,1.80
2023-01-21T07:14:59.189Z,1.48
2023-01-21T07:17:26.497Z,1.47
2023-01-21T07:19:53.879Z,1.42
2023-01-21T07:22:21.436Z,1.53
2023-01-21T07:24:48.680Z,1.46
2023-01-21T07:27:16.320Z,1.52
2023-01-21T07:29:44.056Z,1.85
2023-01-21T07:32:11.269Z,1.81
2023-01-21T07:34:39.303Z,1.65
2023-01-21T07:37:06.564Z,1.75
2023-01-21T07:39:33.911Z,1.81
2023-01-21T07:42:01.312Z,2.15
2023-01-21T07:44:28.737Z,1.59
2023-01-21T07:46:56.133Z,1.66
2023-01-21T07:49:23.527Z,1.51
2023-01-21T07:51:50.927Z,1.37
2023-01-21T07:54:18.238Z,1.30
2023-01-21T07:56:45.633Z,1.35
2023-01-21T07:59:13.913Z,1.30
2023-01-21T08:01:41.816Z,1.29
2023-01-21T08:04:09.878Z,1.26
2023-01-21T08:06:41.559Z,1.54
2023-01-21T08:09:10.254Z,1.62
2023-01-21T08:11:37.840Z,1.54
2023-01-21T08:14:05.756Z,1.71
2023-01-21T08:16:33.062Z,1.34
2023-01-21T08:19:00.642Z,1.28
2023-01-21T08:21:28.033Z,1.40
2023-01-21T08:23:55.504Z,1.47
2023-01-21T08:26:25.559Z,1.40
2023-01-21T08:28:56.454Z,1.62
2023-01-21T08:31:23.925Z,1.49
2023-01-21T08:33:51.283Z,1.39
2023-01-21T08:36:18.570Z,1.56
2023-01-21T08:38:48.538Z,1.45
2023-01-21T08:41:16.604Z,2.76
2023-01-21T08:43:44.082Z,3.82
2023-01-21T08:46:11.527Z,2.56
2023-01-21T08:48:38.932Z,2.20
2023-01-21T08:51:06.675Z,2.45
2023-01-21T08:53:34.047Z,1.75
2023-01-21T08:56:02.659Z,1.65
2023-01-21T08:58:31.024Z,1.58
2023-01-21T09:00:58.984Z,1.56
2023-01-21T09:03:26.360Z,1.10
2023-01-21T09:05:54.312Z,1.13
2023-01-21T09:08:21.738Z,1.31
2023-01-21T09:11:01.049Z,1.25
2023-01-21T09:13:30.494Z,1.52
2023-01-21T09:16:00.660Z,1.64
2023-01-21T09:18:28.112Z,1.67
2023-01-21T09:21:00.634Z,1.76
2023-01-21T09:23:28.260Z,1.97
2023-01-21T09:26:03.384Z,2.15
2023-01-21T09:28:34.231Z,1.83
2023-01-21T09:31:04.321Z,1.79
2023-01-21T09:33:33.182Z,1.92
2023-01-21T09:36:03.213Z,1.84
2023-01-21T09:38:31.229Z,1.95
2023-01-21T09:41:31.006Z,1.90
2023-01-21T09:44:03.039Z,1.80
2023-01-21T09:46:58.837Z,1.57
2023-01-21T09:49:34.459Z,1.91
2023-01-21T09:52:13.867Z,2.03
2023-01-21T09:54:41.136Z,1.67
2023-01-21T09:57:27.154Z,1.57
2023-01-21T10:00:16.389Z,1.89
2023-01-21T10:03:08.989Z,1.68
2023-01-21T10:05:46.109Z,1.70
2023-01-21T10:08:24.585Z,1.90
2023-01-21T10:10:54.580Z,1.84
2023-01-21T10:13:45.329Z,1.81
2023-01-21T10:16:35.731Z,1.83
2023-01-21T10:19:04.804Z,1.74
2023-01-21T10:21:47.059Z,1.80
2023-01-21T10:24:51.538Z,1.94
2023-01-21T10:27:20.875Z,1.93
2023-01-21T10:29:50.631Z,2.13
2023-01-21T10:32:22.365Z,2.27
2023-01-21T10:34:56.261Z,2.19
2023-01-21T10:37:48.538Z,2.14
2023-01-21T10:40:45.177Z,2.37
2023-01-21T10:43:33.371Z,2.40
2023-01-21T10:46:28.124Z,2.21
2023-01-21T10:49:16.622Z,2.32
2023-01-21T10:52:05.435Z,2.53
2023-01-21T10:54:53.355Z,2.58
2023-01-21T10:57:34.765Z,2.42
2023-01-21T11:00:05.501Z,2.48
2023-01-21T11:02:34.035Z,2.21
2023-01-21T11:05:02.873Z,2.48
2023-01-21T11:07:35.374Z,2.70
2023-01-21T11:10:04.048Z,2.44
2023-01-21T11:12:32.992Z,2.18
2023-01-21T11:15:13.045Z,2.33
2023-01-21T11:17:41.973Z,2.56
2023-01-21T11:20:23.864Z,2.22
2023-01-21T11:22:51.667Z,2.10
2023-01-21T11:25:28.230Z,2.32
2023-01-21T11:27:55.695Z,2.46
2023-01-21T11:30:49.066Z,2.44
2023-01-21T11:33:27.429Z,2.48
2023-01-21T11:35:55.427Z,2.51
2023-01-21T11:38:32.011Z,2.38
2023-01-21T11:41:11.628Z,2.66
2023-01-21T11:43:50.865Z,2.87
2023-01-21T11:46:30.959Z,2.92
2023-01-21T11:49:07.168Z,2.84
2023-01-21T11:51:35.195Z,3.13
2023-01-21T11:54:29.237Z,2.91
2023-01-21T11:57:01.797Z,2.89
2023-01-21T11:59:39.000Z,2.95
2023-01-21T12:02:13.885Z,3.15
2023-01-21T12:05:15.609Z,2.87
2023-01-21T12:07:43.189Z,2.81
2023-01-21T12:10:13.560Z,2.90
2023-01-21T12:13:20.540Z,2.76
2023-01-21T12:16:03.707Z,2.86
2023-01-21T12:18:59.195Z,2.91
2023-01-21T12:21:26.482Z,2.75
2023-01-21T12:24:18.368Z,3.12
2023-01-21T12:26:47.276Z,3.05
2023-01-21T12:29:19.465Z,3.20
2023-01-21T12:31:55.292Z,3.22
2023-01-21T12:34:31.767Z,2.91
2023-01-21T12:37:09.808Z,3.12
2023-01-21T12:39:37.739Z,3.03
2023-01-21T12:42:29.402Z,2.99
2023-01-21T12:45:11.653Z,3.06
2023-01-21T12:47:48.543Z,3.12
2023-01-21T12:50:39.557Z,3.31
2023-01-21T12:53:16.319Z,3.18
2023-01-21T12:56:07.520Z,3.23
2023-01-21T12:59:02.923Z,3.16
2023-01-21T13:02:05.709Z,3.15
2023-01-21T13:05:00.913Z,3.28
2023-01-21T13:07:43.605Z,3.10
2023-01-21T13:10:33.926Z,3.35
2023-01-21T13:13:34.430Z,3.43
2023-01-21T13:16:07.497Z,3.50
2023-01-21T13:18:43.925Z,3.72
2023-01-21T13:21:29.847Z,3.85
2023-01-21T13:24:05.612Z,3.82
2023-01-21T13:26:42.546Z,3.74
2023-01-21T13:29:26.661Z,3.87
2023-01-21T13:32:21.250Z,4.17
2023-01-21T13:35:19.931Z,3.69
2023-01-21T13:37:53.217Z,3.33
2023-01-21T13:40:29.292Z,3.43
2023-01-21T13:43:18.482Z,3.73
2023-01-21T13:45:57.917Z,4.01
2023-01-21T13:48:49.482Z,3.70
2023-01-21T13:51:29.297Z,3.72
2023-01-21T13:54:11.477Z,3.51
2023-01-21T13:56:48.783Z,3.65
2023-01-21T13:59:25.412Z,3.59
2023-01-21T14:02:18.784Z,3.61
2023-01-21T14:04:46.103Z,3.74
2023-01-21T14:07:18.475Z,4.05
2023-01-21T14:09:51.493Z,3.75
2023-01-21T14:12:47.616Z,3.39
2023-01-21T14:15:31.186Z,3.61
2023-01-21T14:18:07.697Z,3.78
2023-01-21T14:20:45.441Z,3.67
2023-01-21T14:23:32.419Z,3.75
2023-01-21T14:26:18.370Z,3.68
2023-01-21T14:29:06.550Z,3.72
2023-01-21T14:31:38.486Z,3.86
2023-01-21T14:34:23.274Z,4.05
2023-01-21T14:37:05.619Z,4.03
2023-01-21T14:39:53.238Z,3.98
2023-01-21T14:42:40.316Z,4.08
2023-01-21T14:45:08.354Z,4.07
2023-01-21T14:47:35.576Z,4.19
2023-01-21T14:50:03.128Z,3.99
2023-01-21T14:52:32.337Z,3.98
2023-01-21T14:55:00.346Z,3.75
2023-01-21T14:57:37.175Z,3.75
2023-01-21T15:00:19.649Z,3.84
2023-01-21T15:02:48.395Z,3.90
2023-01-21T15:05:27.768Z,3.94
2023-01-21T15:08:22.131Z,4.18
2023-01-21T15:11:02.401Z,4.01
2023-01-21T15:13:34.027Z,4.06
2023-01-21T15:16:39.958Z,4.01
2023-01-21T15:19:11.202Z,3.84
2023-01-21T15:21:41.365Z,3.89
2023-01-21T15:24:32.343Z,3.98
2023-01-21T15:27:21.797Z,4.27
2023-01-21T15:30:00.616Z,4.28
2023-01-21T15:32:31.230Z,4.46
2023-01-21T15:35:27.849Z,4.25
2023-01-21T15:38:17.483Z,4.19
2023-01-21T15:40:48.557Z,3.97
2023-01-21T15:43:34.740Z,3.79
2023-01-21T15:46:24.046Z,3.75
2023-01-21T15:49:00.227Z,3.76
2023-01-21T15:51:42.688Z,3.84
2023-01-21T15:54:18.703Z,3.92
2023-01-21T15:56:53.130Z,3.95
2023-01-21T15:59:30.533Z,3.82
2023-01-21T16:02:14.486Z,3.93
2023-01-21T16:05:24.293Z,3.95
2023-01-21T16:08:29.276Z,3.87
2023-01-21T16:11:17.707Z,3.83
2023-01-21T16:14:15.581Z,3.83
2023-01-21T16:16:48.801Z,3.97
2023-01-21T16:19:20.542Z,3.62
2023-01-21T16:21:51.150Z,3.72
2023-01-21T16:24:24.745Z,3.63
2023-01-21T16:26:52.122Z,3.62
2023-01-21T16:29:19.584Z,3.64
2023-01-21T16:31:47.682Z,3.57
2023-01-21T16:34:31.516Z,3.62
2023-01-21T16:36:58.754Z,3.59
2023-01-21T16:39:26.059Z,3.74
2023-01-21T16:42:01.878Z,3.67
2023-01-21T16:44:29.585Z,3.58
2023-01-21T16:46:56.966Z,3.56
2023-01-21T16:49:25.687Z,3.54
2023-01-21T16:51:57.414Z,3.75
2023-01-21T16:54:32.352Z,3.55
2023-01-21T16:57:01.960Z,3.63
2023-01-21T16:59:44.632Z,3.49
2023-01-21T17:02:19.264Z,3.52
2023-01-21T17:04:46.917Z,3.51
2023-01-21T17:07:20.761Z,3.34
2023-01-21T17:09:54.312Z,3.21
2023-01-21T17:12:26.185Z,3.31
2023-01-21T17:15:01.075Z,3.25
2023-01-21T17:17:31.621Z,3.13
2023-01-21T17:19:59.358Z,3.07
2023-01-21T17:22:29.180Z,3.05
2023-01-21T17:25:08.533Z,3.21
2023-01-21T17:27:38.533Z,3.14
2023-01-21T17:30:32.573Z,3.29
2023-01-21T17:33:02.101Z,3.15
2023-01-21T17:35:32.029Z,3.13
2023-01-21T17:38:00.327Z,3.08
2023-01-21T17:40:31.508Z,3.03
2023-01-21T17:43:01.256Z,3.14
2023-01-21T17:45:33.295Z,3.04
2023-01-21T17:48:14.101Z,2.85
2023-01-21T17:50:46.553Z,3.16
2023-01-21T17:53:21.103Z,2.83
2023-01-21T17:56:02.976Z,2.73
2023-01-21T17:58:50.413Z,2.53
2023-01-21T18:01:19.644Z,2.58
2023-01-21T18:03:46.983Z,2.49
2023-01-21T18:06:20.351Z,2.96
2023-01-21T18:08:47.776Z,2.78
2023-01-21T18:11:17.381Z,2.62
2023-01-21T18:13:44.669Z,2.40
2023-01-21T18:16:12.155Z,2.32
2023-01-21T18:18:39.608Z,2.46
2023-01-21T18:21:09.539Z,2.45
2023-01-21T18:23:36.857Z,2.43
2023-01-21T18:26:04.790Z,2.48
2023-01-21T18:28:33.225Z,2.36
2023-01-21T18:31:01.872Z,2.38
2023-01-21T18:33:30.969Z,2.50
2023-01-21T18:35:58.285Z,2.49
2023-01-21T18:38:30.571Z,2.45
2023-01-21T18:40:58.987Z,2.47
2023-01-21T18:43:26.353Z,2.64
2023-01-21T18:45:54.581Z,2.53
2023-01-21T18:48:28.310Z,2.50
2023-01-21T18:50:55.727Z,2.38
2023-01-21T18:53:23.082Z,2.15
2023-01-21T18:55:53.911Z,2.39
2023-01-21T18:58:21.590Z,2.40
2023-01-21T19:00:50.695Z,2.20
2023-01-21T19:03:18.370Z,2.07
2023-01-21T19:05:47.664Z,1.99
2023-01-21T19:08:18.303Z,1.97
2023-01-21T19:10:45.782Z,1.85
2023-01-21T19:13:14.619Z,1.86
2023-01-21T19:15:42.068Z,2.10
2023-01-21T19:18:13.898Z,2.21
2023-01-21T19:20:42.240Z,2.25
2023-01-21T19:23:18.701Z,2.08
2023-01-21T19:25:50.903Z,1.88
2023-01-21T19:28:19.147Z,1.92
2023-01-21T19:30:49.461Z,1.99
2023-01-21T19:33:16.922Z,2.01
2023-01-21T19:35:45.342Z,1.93
2023-01-21T19:38:17.053Z,1.94
2023-01-21T19:40:46.732Z,1.80
2023-01-21T19:43:15.846Z,1.80
2023-01-21T19:45:43.867Z,1.82
2023-01-21T19:48:12.968Z,2.06
2023-01-21T19:50:40.666Z,1.90
2023-01-21T19:53:10.215Z,1.93
2023-01-21T19:55:39.215Z,1.99
2023-01-21T19:58:19.549Z,1.73
2023-01-21T20:00:49.256Z,1.75
2023-01-21T20:03:18.154Z,2.00
2023-01-21T20:05:46.055Z,1.66
2023-01-21T20:08:15.682Z,1.70
2023-01-21T20:10:43.891Z,1.77
2023-01-21T20:13:13.015Z,1.67
2023-01-21T20:15:41.987Z,1.75
2023-01-21T20:18:17.900Z,1.66
2023-01-21T20:20:45.357Z,1.61
2023-01-21T20:23:15.541Z,1.40
2023-01-21T20:25:44.211Z,1.63
2023-01-21T20:28:23.290Z,1.64
2023-01-21T20:30:52.446Z,1.46
2023-01-21T20:33:22.096Z,1.35
2023-01-21T20:35:58.377Z,1.22
2023-01-21T20:38:30.724Z,1.36
2023-01-21T20:40:58.777Z,1.55
2023-01-21T20:43:27.391Z,1.51
2023-01-21T20:45:55.807Z,1.66
2023-01-21T20:48:26.265Z,1.79
2023-01-21T20:50:54.339Z,1.69
2023-01-21T20:53:21.776Z,1.65
2023-01-21T20:55:50.631Z,1.50
2023-01-21T20:58:19.177Z,1.32
2023-01-21T21:00:47.046Z,1.25
2023-01-21T21:03:17.985Z,1.21
2023-01-21T21:05:46.551Z,1.29
2023-01-21T21:08:16.177Z,1.17
2023-01-21T21:10:43.821Z,1.20
2023-01-21T21:13:12.195Z,1.31
2023-01-21T21:15:40.151Z,1.51
2023-01-21T21:18:07.500Z,1.51
2023-01-21T21:20:38.672Z,1.61
2023-01-21T21:23:07.484Z,1.73
2023-01-21T21:25:40.115Z,1.61
2023-01-21T21:28:07.464Z,1.62
2023-01-21T21:30:34.829Z,1.25
2023-01-21T21:33:02.314Z,1.26
2023-01-21T21:35:33.468Z,1.49
2023-01-21T21:38:09.830Z,1.35
2023-01-21T21:40:37.223Z,1.48
2023-01-21T21:43:23.305Z,1.52
2023-01-21T21:46:16.987Z,1.66
2023-01-21T21:48:46.166Z,1.87
2023-01-21T21:51:17.618Z,1.31
2023-01-21T21:53:46.072Z,1.21
2023-01-21T21:56:15.810Z,1.40
2023-01-21T21:58:43.385Z,1.26
2023-01-21T22:01:13.693Z,1.17
2023-01-21T22:03:41.284Z,1.20
2023-01-21T22:06:09.823Z,1.28
2023-01-21T22:08:38.781Z,1.13
2023-01-21T22:11:08.914Z,1.09
2023-01-21T22:13:40.344Z,1.34
2023-01-21T22:16:09.838Z,1.56
2023-01-21T22:18:37.240Z,1.45
2023-01-21T22:21:14.321Z,1.28
2023-01-21T22:23:42.084Z,1.25
2023-01-21T22:26:14.652Z,1.12
2023-01-21T22:28:43.126Z,1.30
2023-01-21T22:31:16.046Z,1.29
2023-01-21T22:33:43.716Z,1.18
2023-01-21T22:36:13.618Z,1.34
2023-01-21T22:38:41.334Z,1.30
2023-01-21T22:41:09.843Z,1.29
2023-01-21T22:43:39.228Z,1.40
2023-01-21T22:46:06.787Z,1.64
2023-01-21T22:48:34.137Z,1.71
2023-01-21T22:51:01.748Z,1.71
2023-01-21T22:53:29.673Z,1.53
2023-01-21T22:55:58.888Z,1.30
2023-01-21T22:58:27.750Z,1.17
2023-01-21T23:00:55.484Z,1.23
2023-01-21T23:03:23.452Z,1.09
2023-01-21T23:05:51.435Z,1.12
2023-01-21T23:08:19.614Z,0.60
2023-01-21T23:10:47.517Z,0.77
2023-01-21T23:13:16.066Z,0.71
2023-01-21T23:15:44.573Z,0.78
2023-01-21T23:18:13.728Z,1.33
2023-01-21T23:20:43.274Z,1.37
2023-01-21T23:23:11.706Z,1.29
2023-01-21T23:25:46.254Z,1.63
2023-01-21T23:28:14.906Z,1.56
2023-01-21T23:30:42.739Z,1.48
2023-01-21T23:33:11.495Z,1.27
2023-01-21T23:35:38.820Z,1.13
2023-01-21T23:38:06.078Z,1.02
2023-01-21T23:40:34.407Z,1.13
2023-01-21T23:43:01.640Z,1.16
2023-01-21T23:45:28.917Z,1.26
2023-01-21T23:47:56.167Z,1.34
2023-01-21T23:50:23.552Z,1.07
2023-01-21T23:52:50.819Z,1.22
2023-01-21T23:55:18.282Z,1.29
2023-01-21T23:57:45.486Z,1.10
